Santa Fe, New Mexico
Current Conditions -  °F | °C
As of 6:53 AM on Wednesday 26 Nov 2014 (Local Time) from KSAF Reporting Station
Clear Clear  
Wind Chill: 23°   Ceiling: Unl
Heat Index: 31°   Visibility: 10mi
Dew Point: 12°   Wind: 9mph
Humidity: 46%   Direction: 230°SW
Pressure: 30.3"   Gusts: NA
Location:  35.69°N, 105.93°W
Report Text: KSAF 261353Z 23008KT 10SM CLR M01/M11 A3030 RMK AO2 SLP263 T10061111
Loading
Personal Weather Stations






























Interactive Weather Map New forecast layout! Learn more

10-Day Weather Forecast

Advertisements
Track Severe Weather on mobile